createdAt,value
2019-03-30T00:00:26.011Z,1021.08
2019-03-30T00:01:26.011Z,1021.06
2019-03-30T00:02:25.991Z,1020.98
2019-03-30T00:03:25.983Z,1021.03
2019-03-30T00:04:25.969Z,1020.96
2019-03-30T00:05:25.963Z,1020.95
2019-03-30T00:06:25.947Z,1020.93
2019-03-30T00:07:25.935Z,1020.93
2019-03-30T00:08:25.935Z,1020.92
2019-03-30T00:09:25.918Z,1020.90
2019-03-30T00:10:25.909Z,1020.96
2019-03-30T00:11:25.971Z,1020.94
2019-03-30T00:12:25.884Z,1020.92
2019-03-30T00:13:25.876Z,1020.90
2019-03-30T00:14:25.863Z,1020.90
2019-03-30T00:15:25.848Z,1020.89
2019-03-30T00:16:25.833Z,1020.93
2019-03-30T00:17:25.831Z,1020.86
2019-03-30T00:18:25.809Z,1020.90
2019-03-30T00:19:34.736Z,1020.90
2019-03-30T00:20:26.787Z,1020.95
2019-03-30T00:21:25.797Z,1020.90
2019-03-30T00:22:25.776Z,1020.82
2019-03-30T00:23:25.768Z,1020.81
2019-03-30T00:24:25.744Z,1020.83
2019-03-30T00:25:25.739Z,1020.87
2019-03-30T00:26:25.725Z,1020.83
2019-03-30T00:27:25.726Z,1020.76
2019-03-30T00:28:25.710Z,1020.87
2019-03-30T00:29:25.693Z,1020.80
2019-03-30T00:30:25.683Z,1020.80
2019-03-30T00:31:25.667Z,1020.80
2019-03-30T00:32:25.666Z,1020.80
2019-03-30T00:33:25.654Z,1020.71
2019-03-30T00:34:25.635Z,1020.74
2019-03-30T00:35:25.624Z,1020.70
2019-03-30T00:36:25.616Z,1020.69
2019-03-30T00:37:25.605Z,1020.74
2019-03-30T00:38:25.597Z,1020.69
2019-03-30T00:39:25.580Z,1020.73
2019-03-30T00:40:25.572Z,1020.69
2019-03-30T00:41:25.558Z,1020.65
2019-03-30T00:42:25.550Z,1020.61
2019-03-30T00:43:25.542Z,1020.60
2019-03-30T00:44:25.542Z,1020.70
2019-03-30T00:45:25.522Z,1020.63
2019-03-30T00:46:25.505Z,1020.63
2019-03-30T00:47:25.492Z,1020.64
2019-03-30T00:48:25.481Z,1020.55
2019-03-30T00:49:25.493Z,1020.57
2019-03-30T00:50:25.477Z,1020.61
2019-03-30T00:51:25.448Z,1020.57
2019-03-30T00:52:25.438Z,1020.57
2019-03-30T00:53:25.424Z,1020.60
2019-03-30T00:54:25.445Z,1020.58
2019-03-30T00:55:25.414Z,1020.55
2019-03-30T00:56:25.435Z,1020.57
2019-03-30T00:57:25.380Z,1020.57
2019-03-30T00:58:25.815Z,1020.59
2019-03-30T00:59:25.359Z,1020.54
2019-03-30T01:00:25.346Z,1020.62
2019-03-30T01:01:25.349Z,1020.59
2019-03-30T01:02:25.341Z,1020.58
2019-03-30T01:03:25.312Z,1020.54
2019-03-30T01:04:25.305Z,1020.57
2019-03-30T01:05:25.291Z,1020.54
2019-03-30T01:06:25.284Z,1020.52
2019-03-30T01:07:25.287Z,1020.53
2019-03-30T01:08:25.257Z,1020.55
2019-03-30T01:09:25.251Z,1020.50
2019-03-30T01:10:25.255Z,1020.53
2019-03-30T01:11:25.225Z,1020.49
2019-03-30T01:12:25.220Z,1020.50
2019-03-30T01:13:25.202Z,1020.53
2019-03-30T01:14:25.195Z,1020.47
2019-03-30T01:15:25.178Z,1020.45
2019-03-30T01:16:25.172Z,1020.44
2019-03-30T01:17:25.192Z,1020.50
2019-03-30T01:18:25.170Z,1020.44
2019-03-30T01:19:25.137Z,1020.44
2019-03-30T01:20:25.128Z,1020.43
2019-03-30T01:21:25.133Z,1020.45
2019-03-30T01:22:25.115Z,1020.42
2019-03-30T01:23:25.102Z,1020.46
2019-03-30T01:24:25.076Z,1020.43
2019-03-30T01:25:25.074Z,1020.43
2019-03-30T01:26:25.057Z,1020.45
2019-03-30T01:27:25.048Z,1020.49
2019-03-30T01:28:25.035Z,1020.47
2019-03-30T01:29:25.053Z,1020.48
2019-03-30T01:30:25.014Z,1020.44
2019-03-30T01:31:25.001Z,1020.42
2019-03-30T01:32:24.990Z,1020.46
2019-03-30T01:33:24.985Z,1020.47
2019-03-30T01:34:24.974Z,1020.43
2019-03-30T01:35:25.184Z,1020.49
2019-03-30T01:36:24.948Z,1020.45
2019-03-30T01:37:24.942Z,1020.43
2019-03-30T01:38:24.924Z,1020.44
2019-03-30T01:39:24.938Z,1020.43
2019-03-30T01:40:24.905Z,1020.47
2019-03-30T01:41:24.893Z,1020.46
2019-03-30T01:42:24.890Z,1020.43
2019-03-30T01:43:24.876Z,1020.40
2019-03-30T01:44:24.861Z,1020.39
2019-03-30T01:45:24.850Z,1020.43
2019-03-30T01:46:24.832Z,1020.36
2019-03-30T01:47:24.822Z,1020.39
2019-03-30T01:48:24.812Z,1020.37
2019-03-30T01:49:24.806Z,1020.35
2019-03-30T01:50:24.786Z,1020.33
2019-03-30T01:51:24.778Z,1020.33
2019-03-30T01:52:24.779Z,1020.35
2019-03-30T01:53:24.760Z,1020.33
2019-03-30T01:54:24.754Z,1020.28
2019-03-30T01:55:24.732Z,1020.39
2019-03-30T01:56:24.743Z,1020.35
2019-03-30T01:57:24.749Z,1020.38
2019-03-30T01:58:24.698Z,1020.39
2019-03-30T01:59:24.696Z,1020.34
2019-03-30T02:00:24.685Z,1020.34
2019-03-30T02:01:24.669Z,1020.35
2019-03-30T02:02:24.657Z,1020.36
2019-03-30T02:03:24.661Z,1020.35
2019-03-30T02:04:24.641Z,1020.34
2019-03-30T02:05:24.628Z,1020.33
2019-03-30T02:06:24.616Z,1020.33
2019-03-30T02:07:24.597Z,1020.30
2019-03-30T02:08:24.589Z,1020.27
2019-03-30T02:09:24.589Z,1020.30
2019-03-30T02:10:24.569Z,1020.24
2019-03-30T02:11:24.559Z,1020.30
2019-03-30T02:12:24.545Z,1020.31
2019-03-30T02:13:24.543Z,1020.24
2019-03-30T02:14:24.533Z,1020.27
2019-03-30T02:15:24.523Z,1020.29
2019-03-30T02:16:24.500Z,1020.31
2019-03-30T02:17:24.551Z,1020.26
2019-03-30T02:18:24.487Z,1020.29
2019-03-30T02:19:24.463Z,1020.17
2019-03-30T02:20:30.579Z,1020.24
2019-03-30T02:21:25.449Z,1020.20
2019-03-30T02:22:24.431Z,1020.17
2019-03-30T02:23:24.431Z,1020.20
2019-03-30T02:24:24.421Z,1020.25
2019-03-30T02:25:24.411Z,1020.18
2019-03-30T02:26:24.413Z,1020.19
2019-03-30T02:27:24.376Z,1020.17
2019-03-30T02:28:24.373Z,1020.12
2019-03-30T02:29:24.362Z,1020.17
2019-03-30T02:30:24.359Z,1020.15
2019-03-30T02:31:24.341Z,1020.15
2019-03-30T02:32:24.331Z,1020.13
2019-03-30T02:33:24.315Z,1020.12
2019-03-30T02:34:24.302Z,1020.08
2019-03-30T02:35:26.472Z,1020.11
2019-03-30T02:36:24.281Z,1020.11
2019-03-30T02:37:24.269Z,1020.16
2019-03-30T02:38:24.257Z,1020.13
2019-03-30T02:39:24.250Z,1020.17
2019-03-30T02:40:24.238Z,1020.15
2019-03-30T02:41:24.222Z,1020.11
2019-03-30T02:42:24.219Z,1020.08
2019-03-30T02:43:24.209Z,1020.09
2019-03-30T02:44:24.191Z,1020.08
2019-03-30T02:45:24.177Z,1020.05
2019-03-30T02:46:24.174Z,1020.08
2019-03-30T02:47:24.170Z,1020.06
2019-03-30T02:48:24.146Z,1020.10
2019-03-30T02:49:24.135Z,1020.05
2019-03-30T02:50:24.127Z,1020.09
2019-03-30T02:51:24.108Z,1020.13
2019-03-30T02:52:24.099Z,1020.14
2019-03-30T02:53:24.082Z,1020.09
2019-03-30T02:54:24.113Z,1020.15
2019-03-30T02:55:24.082Z,1020.06
2019-03-30T02:56:24.057Z,1020.06
2019-03-30T02:57:24.062Z,1020.02
2019-03-30T02:58:24.037Z,1020.07
2019-03-30T02:59:24.020Z,1019.99
2019-03-30T03:00:24.168Z,1020.03
2019-03-30T03:01:23.999Z,1020.04
2019-03-30T03:02:23.985Z,1020.06
2019-03-30T03:03:24.000Z,1020.03
2019-03-30T03:04:23.962Z,1020.00
2019-03-30T03:05:23.956Z,1020.02
2019-03-30T03:06:23.954Z,1020.02
2019-03-30T03:07:23.929Z,1020.04
2019-03-30T03:08:23.922Z,1020.00
2019-03-30T03:09:23.908Z,1020.01
2019-03-30T03:10:23.914Z,1020.02
2019-03-30T03:11:23.903Z,1020.03
2019-03-30T03:12:23.890Z,1019.95
2019-03-30T03:13:23.870Z,1019.95
2019-03-30T03:14:23.855Z,1019.98
2019-03-30T03:15:23.857Z,1019.98
2019-03-30T03:16:27.367Z,1019.86
2019-03-30T03:17:23.824Z,1019.92
2019-03-30T03:18:23.805Z,1019.86
2019-03-30T03:19:23.796Z,1019.86
2019-03-30T03:20:23.795Z,1019.90
2019-03-30T03:21:23.776Z,1019.89
2019-03-30T03:22:23.770Z,1019.85
2019-03-30T03:23:23.753Z,1019.82
2019-03-30T03:24:23.742Z,1019.81
2019-03-30T03:25:23.736Z,1019.78
2019-03-30T03:26:23.717Z,1019.75
2019-03-30T03:27:23.711Z,1019.78
2019-03-30T03:28:23.708Z,1019.75
2019-03-30T03:29:23.688Z,1019.64
2019-03-30T03:30:23.713Z,1019.75
2019-03-30T03:31:23.705Z,1019.72
2019-03-30T03:32:23.677Z,1019.70
2019-03-30T03:33:23.654Z,1019.70
2019-03-30T03:34:23.649Z,1019.73
2019-03-30T03:35:23.617Z,1019.73
2019-03-30T03:36:23.606Z,1019.69
2019-03-30T03:37:23.593Z,1019.71
2019-03-30T03:38:23.589Z,1019.69
2019-03-30T03:39:23.584Z,1019.69
2019-03-30T03:40:23.579Z,1019.65
2019-03-30T03:41:23.551Z,1019.66
2019-03-30T03:42:23.544Z,1019.71
2019-03-30T03:43:23.529Z,1019.68
2019-03-30T03:44:23.529Z,1019.69
2019-03-30T03:45:23.505Z,1019.69
2019-03-30T03:46:23.491Z,1019.69
2019-03-30T03:47:23.499Z,1019.66
2019-03-30T03:48:23.485Z,1019.66
2019-03-30T03:49:23.470Z,1019.63
2019-03-30T03:50:23.458Z,1019.58
2019-03-30T03:51:26.054Z,1019.59
2019-03-30T03:52:23.430Z,1019.61
2019-03-30T03:53:23.431Z,1019.61
2019-03-30T03:54:23.402Z,1019.62
2019-03-30T03:55:23.388Z,1019.63
2019-03-30T03:56:23.393Z,1019.56
2019-03-30T03:57:23.373Z,1019.58
2019-03-30T03:58:23.357Z,1019.59
2019-03-30T03:59:23.351Z,1019.59
2019-03-30T04:00:23.341Z,1019.53
2019-03-30T04:01:23.347Z,1019.57
2019-03-30T04:02:23.317Z,1019.58
2019-03-30T04:03:23.302Z,1019.57
2019-03-30T04:04:23.297Z,1019.52
2019-03-30T04:05:23.286Z,1019.53
2019-03-30T04:06:23.285Z,1019.46
2019-03-30T04:07:23.262Z,1019.56
2019-03-30T04:08:23.269Z,1019.54
2019-03-30T04:09:23.237Z,1019.53
2019-03-30T04:10:23.230Z,1019.56
2019-03-30T04:11:23.227Z,1019.53
2019-03-30T04:12:23.218Z,1019.51
2019-03-30T04:13:23.213Z,1019.54
2019-03-30T04:14:23.182Z,1019.52
2019-03-30T04:15:23.173Z,1019.51
2019-03-30T04:16:23.153Z,1019.56
2019-03-30T04:17:23.152Z,1019.51
2019-03-30T04:18:32.840Z,1019.53
2019-03-30T04:20:05.305Z,1019.54
2019-03-30T04:21:05.292Z,1019.49
2019-03-30T04:22:05.277Z,1019.54
2019-03-30T04:23:05.269Z,1019.53
2019-03-30T04:24:05.251Z,1019.53
2019-03-30T04:25:05.244Z,1019.49
2019-03-30T04:26:05.226Z,1019.46
2019-03-30T04:27:05.222Z,1019.52
2019-03-30T04:28:05.223Z,1019.45
2019-03-30T04:29:05.220Z,1019.46
2019-03-30T04:30:05.188Z,1019.46
2019-03-30T04:31:05.165Z,1019.42
2019-03-30T04:32:05.162Z,1019.37
2019-03-30T04:33:05.153Z,1019.40
2019-03-30T04:34:05.189Z,1019.33
2019-03-30T04:35:05.149Z,1019.37
2019-03-30T04:36:05.130Z,1019.36
2019-03-30T04:37:05.116Z,1019.38
2019-03-30T04:38:05.190Z,1019.30
2019-03-30T04:39:05.113Z,1019.36
2019-03-30T04:40:05.121Z,1019.40
2019-03-30T04:41:05.082Z,1019.32
2019-03-30T04:42:05.060Z,1019.31
2019-03-30T04:43:05.052Z,1019.30
2019-03-30T04:44:05.039Z,1019.28
2019-03-30T04:45:05.096Z,1019.33
2019-03-30T04:46:05.018Z,1019.28
2019-03-30T04:47:05.018Z,1019.31
2019-03-30T04:48:04.999Z,1019.35
2019-03-30T04:49:05.000Z,1019.29
2019-03-30T04:50:05.041Z,1019.35
2019-03-30T04:51:04.968Z,1019.39
2019-03-30T04:52:04.956Z,1019.38
2019-03-30T04:53:04.954Z,1019.43
2019-03-30T04:54:04.935Z,1019.40
2019-03-30T04:55:04.929Z,1019.32
2019-03-30T04:56:04.914Z,1019.29
2019-03-30T04:57:04.895Z,1019.26
2019-03-30T04:58:04.955Z,1019.29
2019-03-30T04:59:04.878Z,1019.35
2019-03-30T05:00:04.871Z,1019.35
2019-03-30T05:01:04.865Z,1019.34
2019-03-30T05:02:04.859Z,1019.30
2019-03-30T05:03:04.873Z,1019.29
2019-03-30T05:04:04.835Z,1019.31
2019-03-30T05:05:04.803Z,1019.26
2019-03-30T05:06:04.793Z,1019.31
2019-03-30T05:07:04.795Z,1019.27
2019-03-30T05:08:04.781Z,1019.29
2019-03-30T05:09:04.802Z,1019.24
2019-03-30T05:10:04.754Z,1019.24
2019-03-30T05:11:04.744Z,1019.23
2019-03-30T05:12:04.741Z,1019.20
2019-03-30T05:13:04.743Z,1019.19
2019-03-30T05:14:04.761Z,1019.19
2019-03-30T05:15:04.752Z,1019.21
2019-03-30T05:16:04.683Z,1019.22
2019-03-30T05:17:04.675Z,1019.22
2019-03-30T05:18:04.668Z,1019.18
2019-03-30T05:19:04.648Z,1019.20
2019-03-30T05:20:04.643Z,1019.22
2019-03-30T05:21:04.631Z,1019.19
2019-03-30T05:22:11.997Z,1019.23
2019-03-30T05:23:05.611Z,1019.20
2019-03-30T05:24:04.632Z,1019.17
2019-03-30T05:25:04.602Z,1019.15
2019-03-30T05:26:04.576Z,1019.19
2019-03-30T05:27:04.565Z,1019.25
2019-03-30T05:28:04.555Z,1019.12
2019-03-30T05:29:04.534Z,1019.21
2019-03-30T05:30:04.556Z,1019.19
2019-03-30T05:31:04.534Z,1019.17
2019-03-30T05:32:04.506Z,1019.15
2019-03-30T05:33:05.844Z,1019.21
2019-03-30T05:34:04.486Z,1019.17
2019-03-30T05:35:04.481Z,1019.16
2019-03-30T05:36:04.474Z,1019.18
2019-03-30T05:37:04.462Z,1019.20
2019-03-30T05:38:04.436Z,1019.21
2019-03-30T05:39:04.438Z,1019.25
2019-03-30T05:40:04.465Z,1019.24
2019-03-30T05:41:04.413Z,1019.23
2019-03-30T05:42:04.422Z,1019.17
2019-03-30T05:43:04.381Z,1019.19
2019-03-30T05:44:04.383Z,1019.18
2019-03-30T05:45:04.372Z,1019.19
2019-03-30T05:46:04.373Z,1019.16
2019-03-30T05:47:04.358Z,1019.15
2019-03-30T05:48:04.354Z,1019.19
2019-03-30T05:49:04.325Z,1019.13
2019-03-30T05:50:04.311Z,1019.17
2019-03-30T05:51:04.300Z,1019.20
2019-03-30T05:52:04.298Z,1019.11
2019-03-30T05:53:04.288Z,1019.18
2019-03-30T05:54:04.269Z,1019.13
2019-03-30T05:55:04.262Z,1019.20
2019-03-30T05:56:04.253Z,1019.09
2019-03-30T05:57:04.239Z,1019.12
2019-03-30T05:58:04.242Z,1019.08
2019-03-30T05:59:04.220Z,1019.12
2019-03-30T06:00:04.205Z,1019.11
2019-03-30T06:01:04.193Z,1019.14
2019-03-30T06:02:04.235Z,1019.18
2019-03-30T06:03:04.173Z,1019.12
2019-03-30T06:04:04.172Z,1019.17
2019-03-30T06:05:04.180Z,1019.15
2019-03-30T06:06:04.145Z,1019.15
2019-03-30T06:07:04.129Z,1019.15
2019-03-30T06:08:04.136Z,1019.20
2019-03-30T06:09:04.120Z,1019.11
2019-03-30T06:10:04.119Z,1019.13
2019-03-30T06:11:04.086Z,1019.06
2019-03-30T06:12:04.073Z,1019.06
2019-03-30T06:13:04.057Z,1019.06
2019-03-30T06:14:04.063Z,1019.06
2019-03-30T06:15:04.043Z,1019.10
2019-03-30T06:16:04.051Z,1019.11
2019-03-30T06:17:04.006Z,1019.11
2019-03-30T06:18:04.192Z,1019.08
2019-03-30T06:19:03.996Z,1019.00
2019-03-30T06:20:04.024Z,1019.05
2019-03-30T06:21:04.758Z,1019.05
2019-03-30T06:22:04.260Z,1019.04
2019-03-30T06:23:03.941Z,1019.04
2019-03-30T06:24:03.948Z,1019.05
2019-03-30T06:25:03.923Z,1019.06
2019-03-30T06:26:03.929Z,1019.02
2019-03-30T06:27:03.941Z,1019.05
2019-03-30T06:28:03.939Z,1018.97
2019-03-30T06:29:03.885Z,1019.03
2019-03-30T06:30:03.872Z,1019.07
2019-03-30T06:31:03.880Z,1018.98
2019-03-30T06:32:04.388Z,1019.00
2019-03-30T06:33:03.869Z,1019.04
2019-03-30T06:34:03.871Z,1018.99
2019-03-30T06:35:03.815Z,1019.02
2019-03-30T06:36:03.821Z,1019.00
2019-03-30T06:37:04.761Z,1019.01
2019-03-30T06:38:03.797Z,1018.96
2019-03-30T06:39:03.824Z,1018.91
2019-03-30T06:40:03.761Z,1018.95
2019-03-30T06:41:03.814Z,1018.88
2019-03-30T06:42:03.745Z,1018.89
2019-03-30T06:43:03.851Z,1018.90
2019-03-30T06:44:03.819Z,1018.94
2019-03-30T06:45:03.740Z,1018.91
2019-03-30T06:46:03.695Z,1018.92
2019-03-30T06:47:03.690Z,1018.85
2019-03-30T06:48:03.673Z,1018.85
2019-03-30T06:49:03.772Z,1018.83
2019-03-30T06:50:03.813Z,1018.83
2019-03-30T06:51:03.636Z,1018.86
2019-03-30T06:52:03.626Z,1018.79
2019-03-30T06:53:03.693Z,1018.79
2019-03-30T06:54:03.608Z,1018.83
2019-03-30T06:55:03.616Z,1018.83
2019-03-30T06:56:03.610Z,1018.78
2019-03-30T06:57:03.710Z,1018.85
2019-03-30T06:58:03.563Z,1018.85
2019-03-30T06:59:03.547Z,1018.77
2019-03-30T07:00:03.727Z,1018.79
2019-03-30T07:01:03.543Z,1018.76
2019-03-30T07:02:03.539Z,1018.76
2019-03-30T07:03:03.507Z,1018.73
2019-03-30T07:04:03.504Z,1018.75
2019-03-30T07:05:03.500Z,1018.74
2019-03-30T07:06:03.469Z,1018.73
2019-03-30T07:07:03.486Z,1018.71
2019-03-30T07:08:03.470Z,1018.76
2019-03-30T07:09:03.433Z,1018.75
2019-03-30T07:10:03.427Z,1018.73
2019-03-30T07:11:03.433Z,1018.71
2019-03-30T07:12:03.415Z,1018.72
2019-03-30T07:13:03.413Z,1018.71
2019-03-30T07:14:03.431Z,1018.70
2019-03-30T07:15:03.389Z,1018.68
2019-03-30T07:16:03.373Z,1018.65
2019-03-30T07:17:03.363Z,1018.67
2019-03-30T07:18:03.347Z,1018.71
2019-03-30T07:19:03.362Z,1018.74
2019-03-30T07:20:03.320Z,1018.78
2019-03-30T07:21:03.306Z,1018.74
2019-03-30T07:22:03.299Z,1018.79
2019-03-30T07:23:11.657Z,1018.78
2019-03-30T07:24:04.301Z,1018.74
2019-03-30T07:25:03.285Z,1018.80
2019-03-30T07:26:03.251Z,1018.69
2019-03-30T07:27:03.260Z,1018.70
2019-03-30T07:28:03.253Z,1018.68
2019-03-30T07:29:03.233Z,1018.73
2019-03-30T07:30:03.234Z,1018.71
2019-03-30T07:31:03.232Z,1018.75
2019-03-30T07:32:03.195Z,1018.77
2019-03-30T07:33:03.184Z,1018.76
2019-03-30T07:34:03.186Z,1018.76
2019-03-30T07:35:03.179Z,1018.75
2019-03-30T07:36:03.182Z,1018.81
2019-03-30T07:37:03.133Z,1018.73
2019-03-30T07:38:03.244Z,1018.77
2019-03-30T07:39:03.115Z,1018.72
2019-03-30T07:40:03.110Z,1018.76
2019-03-30T07:41:03.117Z,1018.79
2019-03-30T07:42:03.119Z,1018.80
2019-03-30T07:43:03.116Z,1018.76
2019-03-30T07:44:03.074Z,1018.79
2019-03-30T07:46:20.446Z,1018.72
2019-03-30T07:47:20.434Z,1018.74
2019-03-30T07:48:20.402Z,1018.78
2019-03-30T07:49:20.470Z,1018.74
2019-03-30T07:50:20.360Z,1018.79
2019-03-30T07:51:20.362Z,1018.72
2019-03-30T07:52:20.374Z,1018.78
2019-03-30T07:53:26.789Z,1018.80
2019-03-30T07:54:21.343Z,1018.72
2019-03-30T07:55:20.327Z,1018.70
2019-03-30T07:56:20.314Z,1018.76
2019-03-30T07:57:20.320Z,1018.73
2019-03-30T07:58:20.332Z,1018.67
2019-03-30T07:59:20.281Z,1018.69
2019-03-30T08:00:20.262Z,1018.75
2019-03-30T08:01:20.270Z,1018.64
2019-03-30T08:02:20.505Z,1018.68
2019-03-30T08:03:20.239Z,1018.60
2019-03-30T08:04:20.218Z,1018.66
2019-03-30T08:05:20.217Z,1018.65
2019-03-30T08:06:20.214Z,1018.66
2019-03-30T08:07:20.192Z,1018.65
2019-03-30T08:08:20.201Z,1018.68
2019-03-30T08:09:20.175Z,1018.69
2019-03-30T08:10:20.217Z,1018.71
2019-03-30T08:11:20.145Z,1018.65
2019-03-30T08:12:20.133Z,1018.69
2019-03-30T08:13:20.122Z,1018.70
2019-03-30T08:14:20.126Z,1018.72
2019-03-30T08:15:20.095Z,1018.73
2019-03-30T08:16:20.085Z,1018.69
2019-03-30T08:17:20.077Z,1018.68
2019-03-30T08:18:20.067Z,1018.60
2019-03-30T08:19:21.781Z,1018.63
2019-03-30T08:20:20.057Z,1018.62
2019-03-30T08:21:20.035Z,1018.59
2019-03-30T08:22:20.031Z,1018.60
2019-03-30T08:23:20.000Z,1018.61
2019-03-30T08:24:20.003Z,1018.63
2019-03-30T08:25:20.007Z,1018.66
2019-03-30T08:26:20.020Z,1018.62
2019-03-30T08:27:19.974Z,1018.67
2019-03-30T08:28:19.952Z,1018.65
2019-03-30T08:29:19.960Z,1018.59
2019-03-30T08:30:19.938Z,1018.50
2019-03-30T08:31:19.928Z,1018.37
2019-03-30T08:32:19.912Z,1018.44
2019-03-30T08:33:19.903Z,1018.39
2019-03-30T08:34:19.882Z,1018.43
2019-03-30T08:35:19.880Z,1018.47
2019-03-30T08:36:19.872Z,1018.53
2019-03-30T08:37:19.900Z,1018.56
2019-03-30T08:38:19.841Z,1018.58
2019-03-30T08:39:19.854Z,1018.51
2019-03-30T08:40:19.894Z,1018.53
2019-03-30T08:41:19.815Z,1018.53
2019-03-30T08:42:19.821Z,1018.51
2019-03-30T08:43:19.830Z,1018.57
2019-03-30T08:44:19.821Z,1018.49
2019-03-30T08:45:19.764Z,1018.46
2019-03-30T08:46:19.759Z,1018.49
2019-03-30T08:47:19.797Z,1018.47
2019-03-30T08:48:19.773Z,1018.41
2019-03-30T08:49:19.723Z,1018.44
2019-03-30T08:50:19.720Z,1018.36
2019-03-30T08:51:20.902Z,1018.41
2019-03-30T08:52:19.702Z,1018.43
2019-03-30T08:53:19.748Z,1018.44
2019-03-30T08:54:19.716Z,1018.41
2019-03-30T08:55:19.655Z,1018.37
2019-03-30T08:56:19.652Z,1018.39
2019-03-30T08:57:19.637Z,1018.32
2019-03-30T08:58:19.631Z,1018.21
2019-03-30T08:59:19.632Z,1018.23
2019-03-30T09:00:19.631Z,1018.17
2019-03-30T09:01:19.670Z,1018.25
2019-03-30T09:02:19.590Z,1018.25
2019-03-30T09:03:19.660Z,1018.18
2019-03-30T09:04:19.567Z,1018.17
2019-03-30T09:05:19.574Z,1018.23
2019-03-30T09:06:19.542Z,1018.22
2019-03-30T09:07:19.522Z,1018.21
2019-03-30T09:08:19.523Z,1018.23
2019-03-30T09:09:19.532Z,1018.15
2019-03-30T09:10:19.567Z,1018.24
2019-03-30T09:11:19.506Z,1018.21
2019-03-30T09:12:19.468Z,1018.18
2019-03-30T09:13:19.468Z,1018.23
2019-03-30T09:14:19.461Z,1018.16
2019-03-30T09:15:19.448Z,1018.15
2019-03-30T09:16:19.468Z,1018.14
2019-03-30T09:17:19.464Z,1018.17
2019-03-30T09:18:19.412Z,1018.14
2019-03-30T09:19:19.412Z,1018.17
2019-03-30T09:20:19.397Z,1018.10
2019-03-30T09:21:19.398Z,1018.10
2019-03-30T09:22:19.412Z,1018.09
2019-03-30T09:23:19.510Z,1018.10
2019-03-30T09:24:19.395Z,1018.06
2019-03-30T09:25:19.338Z,1018.02
2019-03-30T09:26:19.340Z,1017.99
2019-03-30T09:27:19.316Z,1017.99
2019-03-30T09:28:19.313Z,1017.98
2019-03-30T09:29:19.309Z,1017.98
2019-03-30T09:30:19.279Z,1018.06
2019-03-30T09:31:19.280Z,1017.97
2019-03-30T09:32:19.269Z,1017.99
2019-03-30T09:33:19.265Z,1018.00
2019-03-30T09:34:19.257Z,1017.89
2019-03-30T09:35:19.217Z,1017.89
2019-03-30T09:36:19.209Z,1017.91
2019-03-30T09:37:19.209Z,1017.88
2019-03-30T09:38:19.195Z,1017.88
2019-03-30T09:39:19.203Z,1017.88
2019-03-30T09:40:19.254Z,1017.88
2019-03-30T09:41:19.149Z,1017.87
2019-03-30T09:42:19.205Z,1017.86
2019-03-30T09:43:19.153Z,1017.87
2019-03-30T09:44:19.125Z,1017.89
2019-03-30T09:45:19.148Z,1017.87
2019-03-30T09:46:19.096Z,1017.84
2019-03-30T09:47:19.173Z,1017.81
2019-03-30T09:48:19.086Z,1017.83
2019-03-30T09:49:19.100Z,1017.76
2019-03-30T09:50:19.071Z,1017.79
2019-03-30T09:51:19.166Z,1017.76
2019-03-30T09:52:19.029Z,1017.74
2019-03-30T09:53:19.035Z,1017.75
2019-03-30T09:54:24.026Z,1017.72
2019-03-30T09:55:20.017Z,1017.72
2019-03-30T09:56:19.008Z,1017.73
2019-03-30T09:57:18.967Z,1017.69
2019-03-30T09:58:18.958Z,1017.70
2019-03-30T09:59:18.950Z,1017.63
2019-03-30T10:00:18.952Z,1017.65
2019-03-30T10:01:18.937Z,1017.69
2019-03-30T10:02:18.972Z,1017.63
2019-03-30T10:03:18.908Z,1017.64
2019-03-30T10:04:18.886Z,1017.54
2019-03-30T10:05:18.888Z,1017.58
2019-03-30T10:06:18.888Z,1017.57
2019-03-30T10:07:18.909Z,1017.55
2019-03-30T10:08:18.883Z,1017.59
2019-03-30T10:09:18.851Z,1017.57
2019-03-30T10:10:18.835Z,1017.49
2019-03-30T10:11:18.823Z,1017.51
2019-03-30T10:12:18.820Z,1017.51
2019-03-30T10:13:18.804Z,1017.49
2019-03-30T10:14:18.803Z,1017.49
2019-03-30T10:15:18.814Z,1017.54
2019-03-30T10:16:18.773Z,1017.46
2019-03-30T10:17:18.779Z,1017.39
2019-03-30T10:18:18.747Z,1017.55
2019-03-30T10:19:18.747Z,1017.44
2019-03-30T10:20:18.723Z,1017.41
2019-03-30T10:21:18.705Z,1017.43
2019-03-30T10:22:18.695Z,1017.42
2019-03-30T10:23:18.689Z,1017.43
2019-03-30T10:24:18.708Z,1017.41
2019-03-30T10:25:18.687Z,1017.42
2019-03-30T10:26:18.654Z,1017.41
2019-03-30T10:27:18.641Z,1017.38
2019-03-30T10:28:18.635Z,1017.37
2019-03-30T10:29:18.660Z,1017.33
2019-03-30T10:30:18.631Z,1017.31
2019-03-30T10:31:18.626Z,1017.29
2019-03-30T10:32:18.584Z,1017.25
2019-03-30T10:33:18.569Z,1017.29
2019-03-30T10:34:18.562Z,1017.24
2019-03-30T10:35:18.554Z,1017.21
2019-03-30T10:36:18.573Z,1017.11
2019-03-30T10:37:18.534Z,1017.21
2019-03-30T10:38:18.525Z,1017.26
2019-03-30T10:39:18.519Z,1017.16
2019-03-30T10:40:20.838Z,1017.17
2019-03-30T10:41:18.496Z,1017.10
2019-03-30T10:42:18.526Z,1017.14
2019-03-30T10:43:18.460Z,1017.07
2019-03-30T10:44:18.448Z,1017.03
2019-03-30T10:45:18.453Z,1017.04
2019-03-30T10:46:18.450Z,1016.96
2019-03-30T10:47:18.444Z,1017.08
2019-03-30T10:48:18.404Z,1017.06
2019-03-30T10:49:18.397Z,1016.99
2019-03-30T10:50:18.390Z,1017.07
2019-03-30T10:51:18.410Z,1017.04
2019-03-30T10:52:18.382Z,1016.91
2019-03-30T10:53:18.374Z,1016.96
2019-03-30T10:54:18.341Z,1016.96
2019-03-30T10:55:18.328Z,1016.94
2019-03-30T10:56:18.322Z,1016.91
2019-03-30T10:57:18.344Z,1016.96
2019-03-30T10:58:18.368Z,1016.91
2019-03-30T10:59:18.302Z,1016.87
2019-03-30T11:00:18.327Z,1016.87
2019-03-30T11:01:18.268Z,1016.93
2019-03-30T11:02:18.252Z,1016.78
2019-03-30T11:03:18.256Z,1016.83
2019-03-30T11:04:18.246Z,1016.78
2019-03-30T11:05:18.224Z,1016.87
2019-03-30T11:06:18.219Z,1016.84
2019-03-30T11:07:18.207Z,1016.80
2019-03-30T11:08:18.191Z,1016.82
2019-03-30T11:09:18.186Z,1016.77
2019-03-30T11:10:18.196Z,1016.73
2019-03-30T11:11:18.154Z,1016.78
2019-03-30T11:12:18.145Z,1016.75
2019-03-30T11:13:18.231Z,1016.76
2019-03-30T11:14:18.119Z,1016.73
2019-03-30T11:15:18.117Z,1016.69
2019-03-30T11:16:18.145Z,1016.65
2019-03-30T11:17:19.473Z,1016.68
2019-03-30T11:18:18.082Z,1016.74
2019-03-30T11:19:18.067Z,1016.66
2019-03-30T11:20:18.074Z,1016.58
2019-03-30T11:21:18.063Z,1016.62
2019-03-30T11:22:18.038Z,1016.66
2019-03-30T11:23:18.021Z,1016.62
2019-03-30T11:24:18.062Z,1016.63
2019-03-30T11:25:18.014Z,1016.62
2019-03-30T11:26:17.998Z,1016.62
2019-03-30T11:27:18.002Z,1016.69
2019-03-30T11:28:17.968Z,1016.64
2019-03-30T11:29:17.956Z,1016.59
2019-03-30T11:30:17.948Z,1016.62
2019-03-30T11:31:17.941Z,1016.63
2019-03-30T11:32:17.933Z,1016.50
2019-03-30T11:33:17.931Z,1016.53
2019-03-30T11:34:17.906Z,1016.54
2019-03-30T11:35:17.889Z,1016.57
2019-03-30T11:36:18.666Z,1016.52
2019-03-30T11:37:17.892Z,1016.59
2019-03-30T11:38:17.876Z,1016.45
2019-03-30T11:39:17.854Z,1016.45
2019-03-30T11:40:17.842Z,1016.41
2019-03-30T11:41:17.835Z,1016.39
2019-03-30T11:42:17.813Z,1016.35
2019-03-30T11:43:17.815Z,1016.32
2019-03-30T11:44:17.800Z,1016.34
2019-03-30T11:45:17.794Z,1016.22
2019-03-30T11:46:17.779Z,1016.26
2019-03-30T11:47:17.767Z,1016.28
2019-03-30T11:48:17.759Z,1016.25
2019-03-30T11:49:17.743Z,1016.20
2019-03-30T11:50:17.741Z,1016.24
2019-03-30T11:51:17.720Z,1016.17
2019-03-30T11:52:17.738Z,1016.14
2019-03-30T11:53:17.696Z,1016.16
2019-03-30T11:54:17.687Z,1016.03
2019-03-30T11:55:22.166Z,1016.02
2019-03-30T11:56:17.666Z,1016.03
2019-03-30T11:57:17.690Z,1015.98
2019-03-30T11:58:17.648Z,1015.96
2019-03-30T11:59:17.638Z,1016.00
2019-03-30T12:00:17.648Z,1016.06
2019-03-30T12:01:17.618Z,1015.95
2019-03-30T12:02:27.732Z,1015.97
2019-03-30T12:03:18.591Z,1015.91
2019-03-30T12:04:17.568Z,1016.02
2019-03-30T12:05:17.564Z,1015.86
2019-03-30T12:06:17.555Z,1015.89
2019-03-30T12:07:17.559Z,1015.84